Time;durP1;ratioP1;P1;durP2;ratioP2;P2;SDS_P1;SDS_P2;PMS_P1;PMS_P2;Temp;Humidity;BMP_temperature;BMP_pressure;BME280_temperature;BME280_humidity;BME280_pressure;Samples;Min_cycle;Max_cycle;Signal;HPM_P1;HPM_P2
2020/12/30 00:04:17;;;;;;;14.58;6.30;;;;;;;5.19;74.26;97721.02;4350993;80;21125;-92
2020/12/30 00:10:21;;;;;;;20.15;9.05;;;;;;;5.04;74.86;97732.08;4345146;80;21167;-92
2020/12/30 00:16:23;;;;;;;13.08;4.50;;;;;;;4.91;74.63;97736.16;4348279;80;21169;-93
2020/12/30 00:22:25;;;;;;;11.88;3.92;;;;;;;4.70;74.46;97737.44;4347025;80;21901;-94
2020/12/30 00:28:26;;;;;;;10.35;4.37;;;;;;;4.29;74.79;97746.50;4353241;80;21171;-93
2020/12/30 00:34:29;;;;;;;11.03;4.17;;;;;;;4.10;75.29;97746.57;4347207;80;21871;-93
2020/12/30 00:40:30;;;;;;;13.25;5.20;;;;;;;3.88;75.25;97747.39;4349577;80;21832;-94
2020/12/30 00:46:32;;;;;;;11.55;4.87;;;;;;;3.68;75.71;97748.55;4349519;80;21139;-92
2020/12/30 00:52:35;;;;;;;32.90;13.68;;;;;;;3.44;75.79;97750.25;4305710;81;21172;-92
2020/12/30 00:58:38;;;;;;;34.88;14.30;;;;;;;3.00;76.01;97755.18;4318688;81;21146;-91
2020/12/30 01:04:42;;;;;;;22.82;8.68;;;;;;;2.89;76.86;97756.88;4324969;81;21179;-91
2020/12/30 01:10:43;;;;;;;19.10;7.80;;;;;;;2.92;76.85;97753.46;4327592;81;21147;-92
2020/12/30 01:16:50;;;;;;;17.90;8.28;;;;;;;2.71;76.90;97739.48;4322381;81;22067;-92
2020/12/30 01:22:51;;;;;;;24.92;8.98;;;;;;;2.50;76.93;97742.30;4320386;81;21162;-91
2020/12/30 01:28:53;;;;;;;16.57;7.92;;;;;;;2.37;77.44;97749.72;4324696;81;22070;-92
2020/12/30 01:34:54;;;;;;;17.87;8.53;;;;;;;2.36;77.85;97741.97;4325338;81;21171;-92
2020/12/30 01:41:09;;;;;;;18.23;8.20;;;;;;;2.39;78.34;97734.52;4323748;81;21156;-91
2020/12/30 01:47:10;;;;;;;15.43;7.45;;;;;;;2.43;78.33;97732.66;4324945;81;21628;-92
2020/12/30 01:53:12;;;;;;;20.72;8.58;;;;;;;2.40;78.66;97732.02;4337740;80;21338;-92
2020/12/30 01:59:18;;;;;;;15.50;7.58;;;;;;;2.18;78.12;97723.21;4319545;80;21130;-93
2020/12/30 02:05:22;;;;;;;22.93;9.28;;;;;;;1.94;78.85;97725.56;4351845;80;21197;-92
2020/12/30 02:11:26;;;;;;;22.25;9.90;;;;;;;1.86;78.72;97712.23;4351203;82;21143;-93
2020/12/30 02:17:27;;;;;;;25.65;8.73;;;;;;;1.85;79.87;97727.63;4351789;80;21139;-91
2020/12/30 02:23:30;;;;;;;19.05;8.10;;;;;;;1.74;79.43;97725.23;4352505;80;21175;-92
2020/12/30 02:29:34;;;;;;;15.08;7.55;;;;;;;1.71;79.89;97731.91;4345467;80;21123;-92
2020/12/30 02:35:36;;;;;;;18.50;9.05;;;;;;;1.78;80.25;97729.37;4351877;80;21157;-93
2020/12/30 02:41:38;;;;;;;18.77;7.35;;;;;;;1.78;80.28;97719.38;4353600;80;21131;-92
2020/12/30 02:47:40;;;;;;;15.25;6.78;;;;;;;1.79;80.59;97722.28;4340087;80;21630;-91
2020/12/30 02:53:42;;;;;;;13.65;6.60;;;;;;;1.78;80.26;97719.38;4349771;80;21572;-91
2020/12/30 02:59:44;;;;;;;15.05;7.47;;;;;;;1.75;80.78;97713.33;4350096;80;21643;-91
2020/12/30 03:05:46;;;;;;;15.50;6.08;;;;;;;1.78;80.68;97713.98;4347851;80;21149;-92
2020/12/30 03:11:49;;;;;;;15.43;6.35;;;;;;;1.54;80.35;97714.13;4351098;80;21596;-92
2020/12/30 03:17:50;;;;;;;14.23;5.72;;;;;;;1.61;81.14;97704.30;4350001;80;21153;-91
2020/12/30 03:23:52;;;;;;;16.15;6.47;;;;;;;1.61;81.14;97704.30;4348321;80;21146;-90
2020/12/30 03:29:54;;;;;;;10.03;5.28;;;;;;;1.32;80.75;97681.01;4344087;80;21173;-92
2020/12/30 03:35:55;;;;;;;13.48;6.08;;;;;;;1.24;81.22;97711.05;4354497;80;21167;-92
2020/12/30 03:41:57;;;;;;;20.23;8.90;;;;;;;1.01;80.91;97712.73;4350440;80;21191;-91
2020/12/30 03:47:58;;;;;;;17.60;7.17;;;;;;;0.90;80.80;97704.91;4352049;80;21199;-93
2020/12/30 03:54:00;;;;;;;17.23;7.42;;;;;;;0.66;81.18;97709.61;4306474;80;21179;-92
2020/12/30 04:00:03;;;;;;;17.05;7.05;;;;;;;0.56;81.67;97692.02;4277079;81;21158;-90
2020/12/30 04:06:06;;;;;;;13.43;5.92;;;;;;;0.75;82.07;97699.47;4275927;82;21194;-91
2020/12/30 04:12:08;;;;;;;13.58;6.58;;;;;;;0.75;82.07;97699.47;4285790;81;21150;-92
2020/12/30 04:18:09;;;;;;;15.93;7.33;;;;;;;0.80;81.90;97708.09;4276131;83;21127;-92
2020/12/30 04:24:11;;;;;;;16.80;7.00;;;;;;;0.37;81.52;97722.00;4276686;83;21162;-93
2020/12/30 04:30:12;;;;;;;21.05;9.18;;;;;;;0.37;81.52;97722.00;4279315;81;21159;-91
2020/12/30 04:36:14;;;;;;;21.40;9.33;;;;;;;0.45;82.13;97722.44;4281980;81;21143;-90
2020/12/30 04:42:24;;;;;;;16.17;8.93;;;;;;;0.48;82.45;97718.52;4277270;81;21173;-92
2020/12/30 04:48:27;;;;;;;19.77;10.35;;;;;;;0.49;82.64;97702.56;4275412;81;21183;-89
2020/12/30 04:54:28;;;;;;;34.75;15.28;;;;;;;0.52;82.33;97713.23;4304496;81;21154;-90
2020/12/30 05:00:31;;;;;;;26.27;13.22;;;;;;;0.57;83.30;97703.00;4312544;81;21191;-90
2020/12/30 05:06:35;;;;;;;20.12;10.15;;;;;;;0.66;83.14;97721.15;4320243;81;22222;-90
2020/12/30 05:12:36;;;;;;;32.15;12.53;;;;;;;0.65;82.62;97731.70;4322999;81;21159;-90
2020/12/30 05:18:41;;;;;;;27.17;12.90;;;;;;;0.45;82.35;97738.59;4324435;81;21167;-91
2020/12/30 05:24:45;;;;;;;23.27;12.60;;;;;;;0.51;83.31;97731.29;4294099;81;21179;-90
2020/12/30 05:30:48;;;;;;;30.75;16.12;;;;;;;0.62;83.25;97738.33;4322772;81;21163;-90
2020/12/30 05:36:51;;;;;;;27.90;14.00;;;;;;;0.49;82.89;97737.56;4323720;81;21123;-90
2020/12/30 05:42:53;;;;;;;24.92;13.43;;;;;;;0.51;83.35;97719.73;4320880;81;21178;-91
2020/12/30 05:48:55;;;;;;;28.67;12.05;;;;;;;0.61;83.92;97725.42;4321828;81;21612;-89
2020/12/30 05:55:00;;;;;;;33.50;12.47;;;;;;;0.66;83.68;97717.69;4291325;81;21218;-90
2020/12/30 06:01:07;;;;;;;25.72;12.63;;;;;;;0.76;83.93;97730.66;4277806;81;21164;-90
2020/12/30 06:07:15;;;;;;;22.22;11.12;;;;;;;0.74;83.17;97719.44;4273339;81;21194;-92
2020/12/30 06:13:21;;;;;;;25.52;14.10;;;;;;;0.68;83.66;97738.31;4261038;81;21196;-89
2020/12/30 06:19:26;;;;;;;18.55;9.70;;;;;;;0.61;83.33;97724.07;4279926;81;21177;-90
2020/12/30 06:25:31;;;;;;;23.83;12.00;;;;;;;0.51;83.45;97733.19;4273708;82;21173;-91
2020/12/30 06:31:35;;;;;;;33.35;15.78;;;;;;;0.51;83.45;97733.19;4278145;81;21152;-91
2020/12/30 06:37:38;;;;;;;24.47;13.90;;;;;;;0.49;84.26;97734.88;4276394;81;22315;-91
2020/12/30 06:43:54;;;;;;;29.67;13.47;;;;;;;0.55;84.51;97730.82;4276020;81;21143;-92
2020/12/30 06:50:01;;;;;;;28.67;14.23;;;;;;;0.62;83.74;97723.52;4279101;81;21337;-91
2020/12/30 06:56:03;;;;;;;29.77;15.40;;;;;;;0.50;84.21;97719.52;4276007;81;21177;-91
2020/12/30 07:02:11;;;;;;;21.93;12.50;;;;;;;0.38;84.08;97724.91;4277658;81;21136;-91
2020/12/30 07:08:38;;;;;;;27.27;15.33;;;;;;;0.39;84.49;97740.74;4281180;81;21130;-91
2020/12/30 07:14:39;;;;;;;28.73;15.28;;;;;;;0.51;84.39;97729.95;4276457;81;21132;-90
2020/12/30 07:20:41;;;;;;;27.07;14.33;;;;;;;0.46;84.57;97741.50;4275967;81;21568;-90
2020/12/30 07:26:43;;;;;;;25.40;15.00;;;;;;;0.43;84.45;97743.52;4277841;81;21588;-91
2020/12/30 07:32:47;;;;;;;32.38;15.35;;;;;;;0.50;84.60;97748.55;4277802;81;21183;-91
2020/12/30 07:38:50;;;;;;;29.32;14.03;;;;;;;0.57;84.51;97750.13;4280355;81;21128;-92
2020/12/30 07:44:55;;;;;;;42.75;20.88;;;;;;;0.67;84.78;97764.48;4276858;81;21167;-91
2020/12/30 07:50:56;;;;;;;39.27;19.80;;;;;;;0.67;84.71;97754.26;4273511;81;21650;-91
2020/12/30 07:57:11;;;;;;;45.33;21.00;;;;;;;0.85;85.18;97757.69;4316612;81;21194;-90
2020/12/30 08:03:14;;;;;;;45.33;21.05;;;;;;;1.07;84.96;97768.50;4320311;81;21229;-90
2020/12/30 08:09:16;;;;;;;50.00;23.92;;;;;;;1.10;85.14;97752.99;4318999;81;21877;-91
2020/12/30 08:15:18;;;;;;;64.03;29.72;;;;;;;1.23;85.21;97753.97;4320694;81;21190;-91
2020/12/30 08:21:25;;;;;;;62.03;32.83;;;;;;;1.27;85.11;97752.70;4322100;81;21287;-92
2020/12/30 08:27:31;;;;;;;61.80;31.27;;;;;;;1.42;85.08;97750.62;4321167;81;21183;-92
2020/12/30 08:33:33;;;;;;;54.20;27.20;;;;;;;1.44;85.07;97755.11;4321851;81;21763;-91
2020/12/30 08:39:48;;;;;;;61.28;30.08;;;;;;;1.47;84.98;97760.58;4320015;81;21136;-91
2020/12/30 08:45:58;;;;;;;59.27;31.87;;;;;;;1.56;85.34;97768.52;4321346;81;21644;-90
2020/12/30 08:52:16;;;;;;;68.62;35.10;;;;;;;1.58;85.23;97750.85;4317685;81;21970;-89
2020/12/30 08:58:17;;;;;;;77.40;39.95;;;;;;;1.73;85.28;97767.41;4276163;81;21138;-89
2020/12/30 09:04:19;;;;;;;65.87;34.88;;;;;;;1.79;85.25;97778.95;4281343;81;21624;-90
2020/12/30 09:10:21;;;;;;;103.70;50.95;;;;;;;1.91;85.42;97782.91;4279354;82;21596;-91
2020/12/30 09:16:22;;;;;;;129.12;59.27;;;;;;;1.98;85.37;97775.00;4278958;82;21152;-91
2020/12/30 09:22:24;;;;;;;272.77;100.78;;;;;;;2.00;85.44;97767.36;4277901;81;21190;-91
2020/12/30 09:28:26;;;;;;;186.88;75.52;;;;;;;1.97;85.52;97760.52;4281346;81;21159;-90
2020/12/30 09:34:30;;;;;;;139.00;62.45;;;;;;;2.06;85.51;97759.77;4281929;81;21596;-90
2020/12/30 09:40:41;;;;;;;118.95;58.33;;;;;;;2.15;85.77;97753.61;4276401;81;21158;-92
2020/12/30 09:46:51;;;;;;;115.55;60.33;;;;;;;2.24;85.88;97753.65;4282981;81;21139;-91
2020/12/30 09:52:52;;;;;;;119.10;60.00;;;;;;;2.32;85.94;97747.28;4284508;81;21187;-91
2020/12/30 09:58:54;;;;;;;98.20;53.90;;;;;;;2.40;85.86;97750.37;4316443;81;21192;-92
2020/12/30 10:04:56;;;;;;;103.00;56.30;;;;;;;2.64;86.48;97750.71;4324187;81;21736;-90
2020/12/30 10:10:57;;;;;;;88.33;46.18;;;;;;;2.85;86.56;97739.78;4327095;81;21175;-91
2020/12/30 10:16:59;;;;;;;77.67;41.92;;;;;;;2.88;86.10;97742.37;4317495;81;21143;-92
2020/12/30 10:23:00;;;;;;;71.57;40.60;;;;;;;3.03;86.42;97739.59;4319946;81;21329;-92
2020/12/30 10:29:03;;;;;;;72.75;42.95;;;;;;;3.16;86.40;97726.72;4321874;81;21585;-91
2020/12/30 10:35:07;;;;;;;89.28;49.58;;;;;;;3.18;86.45;97724.42;4324709;81;21159;-91
2020/12/30 10:41:10;;;;;;;61.20;34.03;;;;;;;3.28;86.67;97719.80;4321519;81;21136;-91
2020/12/30 10:47:12;;;;;;;90.53;43.55;;;;;;;3.42;86.52;97715.20;4321670;81;21219;-92
2020/12/30 10:53:16;;;;;;;95.40;46.68;;;;;;;3.55;86.64;97703.09;4323432;81;21414;-91
2020/12/30 10:59:22;;;;;;;78.95;42.70;;;;;;;3.63;86.49;97699.37;4288028;81;21185;-91
2020/12/30 11:05:41;;;;;;;65.08;36.75;;;;;;;3.61;86.24;97684.05;4365663;80;26350;-91
2020/12/30 11:11:42;;;;;;;61.55;34.63;;;;;;;3.61;86.44;97692.17;4297709;81;21152;-92
2020/12/30 11:17:44;;;;;;;62.15;33.73;;;;;;;3.76;86.24;97694.77;4300241;81;21200;-91
2020/12/30 11:23:46;;;;;;;62.93;35.58;;;;;;;3.68;86.33;97684.95;4290858;81;21156;-91
2020/12/30 11:29:48;;;;;;;68.70;37.88;;;;;;;3.76;86.69;97690.70;4292922;81;21247;-91
2020/12/30 11:35:49;;;;;;;60.90;34.63;;;;;;;3.77;86.66;97690.93;4294347;81;21625;-91
2020/12/30 11:41:51;;;;;;;64.60;37.83;;;;;;;3.91;86.42;97701.20;4292491;81;21188;-92
2020/12/30 11:47:54;;;;;;;68.10;36.20;;;;;;;3.94;86.80;97696.41;4288807;81;21188;-91
2020/12/30 11:53:56;;;;;;;77.22;39.18;;;;;;;3.96;86.58;97697.60;4294722;81;21136;-92
2020/12/30 11:59:57;;;;;;;63.87;37.85;;;;;;;3.97;86.64;97706.52;4295656;78;21720;-91
2020/12/30 12:05:59;;;;;;;51.88;30.62;;;;;;;4.00;86.54;97712.00;4272233;81;21707;-92
2020/12/30 12:12:01;;;;;;;61.35;32.35;;;;;;;3.94;86.56;97720.22;4276420;81;21168;-91
2020/12/30 12:18:03;;;;;;;57.67;33.35;;;;;;;3.93;86.72;97720.58;4271031;82;21121;-92
2020/12/30 12:24:04;;;;;;;63.17;33.33;;;;;;;3.83;86.85;97722.53;4271918;81;21298;-92
2020/12/30 12:30:05;;;;;;;70.72;36.28;;;;;;;3.91;86.98;97733.69;4271676;81;21145;-91
2020/12/30 12:36:13;;;;;;;72.47;38.30;;;;;;;3.96;86.89;97735.51;4269001;82;21189;-91
2020/12/30 12:42:18;;;;;;;61.30;33.40;;;;;;;3.98;87.01;97733.79;4271636;81;21501;-90
2020/12/30 12:48:20;;;;;;;50.40;28.80;;;;;;;3.96;86.98;97740.16;4265461;81;21169;-90
2020/12/30 12:54:22;;;;;;;49.73;29.75;;;;;;;3.94;87.01;97743.80;4266569;81;21306;-91
2020/12/30 13:00:23;;;;;;;52.48;29.15;;;;;;;4.08;87.09;97746.17;4267915;81;21133;-90
2020/12/30 13:06:34;;;;;;;46.30;27.58;;;;;;;4.16;87.28;97747.06;4271663;82;21303;-91
2020/12/30 13:12:35;;;;;;;47.27;28.15;;;;;;;4.22;87.25;97754.53;4269854;81;21141;-90
2020/12/30 13:18:38;;;;;;;51.65;30.77;;;;;;;4.29;87.24;97757.92;4267718;81;21623;-89
2020/12/30 13:24:39;;;;;;;64.03;35.50;;;;;;;4.25;87.33;97742.97;4269222;81;21322;-90
2020/12/30 13:30:42;;;;;;;52.23;30.92;;;;;;;4.29;87.38;97743.79;4267566;81;21168;-91
2020/12/30 13:36:44;;;;;;;55.45;32.10;;;;;;;4.26;87.49;97762.13;4270045;81;21583;-92
2020/12/30 13:42:46;;;;;;;67.82;38.10;;;;;;;4.28;87.15;97759.84;4268839;81;21463;-92
2020/12/30 13:48:47;;;;;;;72.27;39.08;;;;;;;4.03;87.54;97780.32;4266062;81;21666;-92
2020/12/30 13:54:49;;;;;;;70.78;37.83;;;;;;;4.09;87.73;97780.78;4266832;82;21595;-91
2020/12/30 14:00:51;;;;;;;67.82;34.95;;;;;;;4.07;87.45;97781.74;4272488;81;21779;-91
2020/12/30 14:06:59;;;;;;;75.08;38.98;;;;;;;4.02;87.58;97790.16;4298445;81;21144;-92
2020/12/30 14:13:01;;;;;;;84.50;44.65;;;;;;;4.08;87.75;97794.12;4302774;81;21180;-91
2020/12/30 14:19:03;;;;;;;98.12;49.38;;;;;;;4.09;87.57;97799.74;4295048;81;21196;-91
2020/12/30 14:25:04;;;;;;;92.85;52.00;;;;;;;4.05;87.51;97793.50;4297942;81;21624;-91
2020/12/30 14:31:06;;;;;;;103.22;54.93;;;;;;;4.08;87.70;97798.98;4304269;81;21453;-91
2020/12/30 14:37:08;;;;;;;90.53;48.05;;;;;;;4.07;87.88;97801.46;4305158;81;21152;-91
2020/12/30 14:43:09;;;;;;;95.07;50.83;;;;;;;4.07;88.22;97802.05;4302724;81;21188;-91
2020/12/30 14:49:11;;;;;;;96.65;50.78;;;;;;;4.09;87.78;97810.02;4304840;81;21199;-91
2020/12/30 14:55:13;;;;;;;92.27;52.58;;;;;;;3.88;88.09;97826.46;4306061;81;21164;-91
2020/12/30 15:01:25;;;;;;;99.20;54.58;;;;;;;3.90;88.23;97828.25;4302997;81;21232;-90
2020/12/30 15:07:26;;;;;;;89.72;46.10;;;;;;;3.96;88.25;97838.98;4267166;81;22126;-91
2020/12/30 15:13:28;;;;;;;87.97;47.88;;;;;;;3.99;88.39;97834.20;4266993;81;21606;-90
2020/12/30 15:19:30;;;;;;;92.82;51.65;;;;;;;4.03;88.61;97836.39;4267691;81;21287;-90
2020/12/30 15:25:31;;;;;;;87.33;48.45;;;;;;;3.99;88.21;97839.62;4266225;81;21621;-90
2020/12/30 15:31:32;;;;;;;84.65;47.13;;;;;;;3.92;88.43;97846.25;4271488;81;21298;-91
2020/12/30 15:37:34;;;;;;;91.70;50.30;;;;;;;3.88;88.45;97846.77;4266468;81;21330;-91
2020/12/30 15:43:35;;;;;;;82.90;48.25;;;;;;;3.79;88.50;97855.09;4270336;81;21184;-91
2020/12/30 15:49:37;;;;;;;102.72;57.85;;;;;;;3.69;88.57;97860.31;4273334;81;21124;-92
2020/12/30 15:55:38;;;;;;;91.22;52.15;;;;;;;3.68;88.67;97864.93;4269202;81;21638;-92
2020/12/30 16:01:41;;;;;;;101.50;56.90;;;;;;;3.78;88.77;97875.20;4267612;81;21159;-91
2020/12/30 16:07:42;;;;;;;108.00;58.68;;;;;;;3.81;88.64;97885.31;4290398;81;21208;-92
2020/12/30 16:13:44;;;;;;;98.75;58.08;;;;;;;3.76;88.77;97897.77;4291360;81;21306;-91
2020/12/30 16:19:45;;;;;;;97.40;58.78;;;;;;;3.70;89.00;97903.81;4290024;81;21159;-92
2020/12/30 16:25:47;;;;;;;115.77;66.25;;;;;;;3.71;89.16;97906.17;4292354;81;21160;-92
2020/12/30 16:31:50;;;;;;;108.05;65.83;;;;;;;3.80;89.35;97928.42;4290470;81;21163;-92
2020/12/30 16:37:52;;;;;;;104.85;59.27;;;;;;;3.73;89.10;97920.14;4291209;81;21180;-92
2020/12/30 16:43:53;;;;;;;104.03;60.12;;;;;;;3.67;89.09;97926.19;4294697;81;21302;-91
2020/12/30 16:49:55;;;;;;;111.50;65.90;;;;;;;3.62;89.15;97915.66;4293338;82;21314;-92
2020/12/30 16:55:56;;;;;;;140.60;75.80;;;;;;;3.61;89.33;97930.31;4292170;81;21160;-91
2020/12/30 17:01:58;;;;;;;161.43;91.55;;;;;;;3.51;89.67;97926.83;4288530;81;21692;-91
2020/12/30 17:07:59;;;;;;;87.67;49.75;;;;;;;3.62;89.59;97954.91;4268640;81;21594;-92
2020/12/30 17:14:03;;;;;;;131.32;70.67;;;;;;;3.72;89.80;97959.73;4267340;81;21153;-91
2020/12/30 17:20:05;;;;;;;90.57;47.53;;;;;;;3.78;89.97;97947.48;4266992;82;21606;-93
2020/12/30 17:26:09;;;;;;;99.28;52.00;;;;;;;3.85;90.00;97942.23;4270903;81;21144;-91
2020/12/30 17:32:10;;;;;;;91.30;51.10;;;;;;;3.84;89.99;97942.80;4267848;81;21157;-91
2020/12/30 17:38:13;;;;;;;209.65;95.17;;;;;;;3.86;90.08;97952.70;4270366;82;21541;-92
2020/12/30 17:51:20;;;;;;;119.30;62.45;;;;;;;4.03;90.43;97966.37;4265638;82;21140;-92
2020/12/30 17:57:22;;;;;;;107.30;58.33;;;;;;;4.01;90.39;97976.80;4264016;81;21149;-90
2020/12/30 18:03:23;;;;;;;130.22;66.25;;;;;;;4.10;90.38;97991.67;4270238;81;21354;-91
2020/12/30 18:09:25;;;;;;;120.10;60.28;;;;;;;4.13;90.23;97988.28;4293937;81;21140;-90
2020/12/30 18:15:27;;;;;;;160.78;84.47;;;;;;;4.17;90.26;97994.54;4291204;81;21188;-91
2020/12/30 18:21:34;;;;;;;196.22;108.03;;;;;;;4.01;89.97;97989.75;4292679;81;21168;-91
2020/12/30 18:27:36;;;;;;;181.72;100.90;;;;;;;3.96;90.06;97988.67;4291236;81;21286;-91
2020/12/30 18:33:50;;;;;;;176.05;97.08;;;;;;;3.91;90.08;97986.27;4293684;81;21161;-91
2020/12/30 18:39:52;;;;;;;170.82;88.92;;;;;;;3.91;90.17;97992.25;4292463;81;21176;-92
2020/12/30 18:45:54;;;;;;;172.93;92.50;;;;;;;3.89;90.32;97985.84;4272809;81;21598;-92
2020/12/30 18:51:55;;;;;;;173.15;97.78;;;;;;;4.00;90.32;97990.11;4291730;81;21694;-91
2020/12/30 18:57:57;;;;;;;183.50;95.03;;;;;;;3.96;90.12;97987.33;4294020;81;21160;-92
2020/12/30 19:03:59;;;;;;;151.65;81.50;;;;;;;4.00;90.21;97995.53;4281469;81;21299;-91
2020/12/30 19:10:01;;;;;;;156.37;86.30;;;;;;;3.99;90.14;98000.18;4270428;82;21893;-91
2020/12/30 19:16:04;;;;;;;159.30;85.77;;;;;;;4.05;90.03;98003.37;4266386;82;21910;-91
2020/12/30 19:22:06;;;;;;;176.53;97.62;;;;;;;4.04;90.01;98001.81;4265508;81;21303;-91
2020/12/30 19:28:07;;;;;;;179.70;96.87;;;;;;;3.95;90.00;98006.63;4267648;82;21326;-91
2020/12/30 19:34:10;;;;;;;148.45;84.15;;;;;;;3.80;90.10;98014.25;4269539;82;21195;-92
2020/12/30 19:40:12;;;;;;;179.35;94.47;;;;;;;3.73;89.92;98016.81;4260435;81;21354;-90
2020/12/30 19:46:15;;;;;;;168.72;90.22;;;;;;;3.74;90.52;98021.88;4236954;81;21601;-90
2020/12/30 19:52:16;;;;;;;184.07;96.53;;;;;;;3.82;90.75;98033.05;4265643;81;21198;-91
2020/12/30 19:58:18;;;;;;;157.52;87.35;;;;;;;3.90;90.29;98023.95;4246190;81;21177;-92
2020/12/30 20:04:20;;;;;;;182.02;97.40;;;;;;;3.93;90.16;98021.88;4267844;81;21156;-90
2020/12/30 20:10:22;;;;;;;205.70;110.22;;;;;;;3.94;90.38;98033.50;4269953;82;21164;-91
2020/12/30 20:16:23;;;;;;;195.97;107.25;;;;;;;3.74;90.39;98042.73;4266487;81;21658;-92
2020/12/30 20:22:25;;;;;;;187.68;104.65;;;;;;;3.81;90.81;98061.83;4265920;81;21619;-92
2020/12/30 20:28:27;;;;;;;197.07;110.97;;;;;;;3.90;90.76;98065.15;4269654;81;21184;-91
2020/12/30 20:34:29;;;;;;;216.85;118.82;;;;;;;4.01;90.81;98077.00;4267579;81;21176;-92
2020/12/30 20:40:30;;;;;;;181.97;101.72;;;;;;;3.94;90.64;98079.53;4266805;81;21223;-92
2020/12/30 20:46:32;;;;;;;214.93;111.68;;;;;;;3.96;90.51;98086.75;4245959;82;21122;-93
2020/12/30 20:52:34;;;;;;;205.22;109.00;;;;;;;3.89;90.54;98088.72;4265816;81;21205;-91
2020/12/30 20:58:37;;;;;;;192.45;102.38;;;;;;;3.89;90.80;98090.63;4266610;82;21804;-92
2020/12/30 21:04:39;;;;;;;182.88;98.52;;;;;;;3.90;90.82;98098.41;4274574;81;21590;-92
2020/12/30 21:10:40;;;;;;;194.75;105.07;;;;;;;3.90;90.67;98101.11;4275155;82;21590;-91
2020/12/30 21:16:42;;;;;;;200.30;104.20;;;;;;;3.78;90.74;98115.33;4267419;82;21335;-90
2020/12/30 21:22:44;;;;;;;193.35;105.95;;;;;;;3.70;91.03;98125.77;4268608;82;21777;-91
2020/12/30 21:28:45;;;;;;;201.35;105.10;;;;;;;3.66;91.19;98131.67;4274195;82;21881;-93
2020/12/30 21:34:47;;;;;;;206.10;107.22;;;;;;;3.69;91.08;98137.73;4271853;82;21625;-90
2020/12/30 21:40:49;;;;;;;188.55;102.02;;;;;;;3.69;91.31;98144.50;4270718;82;21598;-92
2020/12/30 21:46:50;;;;;;;194.95;104.95;;;;;;;3.69;91.33;98157.48;4275496;82;21624;-90
2020/12/30 21:52:52;;;;;;;188.93;99.47;;;;;;;3.74;91.54;98159.13;4273536;82;21161;-92
2020/12/30 21:58:53;;;;;;;191.12;103.45;;;;;;;3.90;91.50;98170.74;4269903;82;21122;-92
2020/12/30 22:04:55;;;;;;;191.55;100.18;;;;;;;3.99;91.43;98172.69;4282239;81;21183;-92
2020/12/30 22:10:56;;;;;;;181.72;94.97;;;;;;;3.92;91.31;98165.74;4297690;82;21459;-91
2020/12/30 22:16:58;;;;;;;165.47;92.45;;;;;;;3.90;91.37;98164.73;4297145;81;21160;-92
2020/12/30 22:22:59;;;;;;;186.28;93.97;;;;;;;3.92;91.39;98173.86;4298101;81;21892;-91
2020/12/30 22:29:01;;;;;;;168.13;89.58;;;;;;;3.95;91.36;98171.80;4298706;81;21124;-91
2020/12/30 22:35:02;;;;;;;171.20;87.55;;;;;;;3.85;91.23;98168.30;4296982;81;21179;-91
2020/12/30 22:41:09;;;;;;;186.43;93.78;;;;;;;3.76;91.28;98188.77;4294417;81;21179;-91
2020/12/30 22:47:11;;;;;;;178.07;95.22;;;;;;;3.78;91.56;98181.09;4297870;81;21168;-92
2020/12/30 22:53:12;;;;;;;168.50;85.40;;;;;;;3.80;91.34;98199.69;4296334;81;21176;-91
2020/12/30 22:59:14;;;;;;;166.65;87.30;;;;;;;3.68;91.25;98194.37;4298153;81;21692;-92
2020/12/30 23:05:15;;;;;;;159.03;84.00;;;;;;;3.56;91.44;98197.92;4290351;81;21459;-90
2020/12/30 23:11:17;;;;;;;170.38;86.75;;;;;;;3.65;91.93;98204.54;4268548;81;21157;-93
2020/12/30 23:17:19;;;;;;;155.63;80.97;;;;;;;3.67;91.80;98204.40;4268275;81;21197;-91
2020/12/30 23:23:23;;;;;;;207.60;104.60;;;;;;;3.73;91.96;98197.58;4270673;81;21164;-91
2020/12/30 23:29:26;;;;;;;145.95;77.92;;;;;;;3.80;92.03;98192.92;4269697;82;21613;-92
2020/12/30 23:35:28;;;;;;;152.43;76.20;;;;;;;3.77;91.97;98194.41;4269840;81;21172;-91
2020/12/30 23:41:30;;;;;;;157.65;79.92;;;;;;;3.82;91.98;98187.36;4269397;81;21133;-91
2020/12/30 23:47:31;;;;;;;146.70;74.80;;;;;;;3.87;92.07;98194.46;4271654;82;21490;-92
2020/12/30 23:53:33;;;;;;;134.55;69.40;;;;;;;3.89;91.98;98194.87;4265584;82;21153;-94
2020/12/30 23:59:34;;;;;;;134.00;70.17;;;;;;;3.93;92.00;98196.53;4272838;81;21597;-91
